createdAt,value
2022-09-23T00:00:16.998Z,26.53
2022-09-23T00:02:53.417Z,28.20
2022-09-23T00:05:27.672Z,29.10
2022-09-23T00:08:02.032Z,30.47
2022-09-23T00:10:36.546Z,30.40
2022-09-23T00:13:12.705Z,34.47
2022-09-23T00:15:45.956Z,32.60
2022-09-23T00:18:21.867Z,32.43
2022-09-23T00:20:55.277Z,33.47
2022-09-23T00:23:44.660Z,26.87
2022-09-23T00:26:21.358Z,34.30
2022-09-23T00:28:57.111Z,31.90
2022-09-23T00:31:33.224Z,34.83
2022-09-23T00:34:07.716Z,30.60
2022-09-23T00:36:41.701Z,35.87
2022-09-23T00:39:15.574Z,37.53
2022-09-23T00:41:51.024Z,35.43
2022-09-23T00:44:47.586Z,31.70
2022-09-23T00:47:26.301Z,38.70
2022-09-23T00:50:10.263Z,35.00
2022-09-23T00:52:44.280Z,40.27
2022-09-23T00:55:23.449Z,40.50
2022-09-23T00:57:59.145Z,38.17
2022-09-23T01:00:35.317Z,33.43
2022-09-23T01:03:10.319Z,39.43
2022-09-23T01:05:44.990Z,34.23
2022-09-23T01:08:19.867Z,33.43
2022-09-23T01:11:10.701Z,31.23
2022-09-23T01:13:54.306Z,31.77
2022-09-23T01:16:37.943Z,31.60
2022-09-23T01:19:28.557Z,29.13
2022-09-23T01:22:10.519Z,29.90
2022-09-23T01:25:01.197Z,31.53
2022-09-23T01:27:58.710Z,28.40
2022-09-23T01:30:58.943Z,30.40
2022-09-23T01:33:39.200Z,27.50
2022-09-23T01:36:21.550Z,24.80
2022-09-23T01:39:03.382Z,27.20
2022-09-23T01:41:57.894Z,29.27
2022-09-23T01:44:40.135Z,27.97
2022-09-23T01:47:20.679Z,28.07
2022-09-23T01:49:58.824Z,30.47
2022-09-23T01:52:36.229Z,28.87
2022-09-23T01:55:20.678Z,24.40
2022-09-23T01:57:59.727Z,28.93
2022-09-23T02:00:38.450Z,30.97
2022-09-23T02:03:19.321Z,28.17
2022-09-23T02:06:00.197Z,30.20
2022-09-23T02:08:39.526Z,37.93
2022-09-23T02:11:15.763Z,38.70
2022-09-23T02:13:55.415Z,29.53
2022-09-23T02:16:33.962Z,29.67
2022-09-23T02:19:14.603Z,31.50
2022-09-23T02:21:51.597Z,33.83
2022-09-23T02:24:37.477Z,37.67
2022-09-23T02:27:21.061Z,37.07
2022-09-23T02:30:01.949Z,36.87
2022-09-23T02:32:42.629Z,45.17
2022-09-23T02:35:24.275Z,37.87
2022-09-23T02:38:06.597Z,42.63
2022-09-23T02:40:44.743Z,35.87
2022-09-23T02:43:23.882Z,43.07
2022-09-23T02:45:58.351Z,43.70
2022-09-23T02:48:38.995Z,46.70
2022-09-23T02:51:17.694Z,49.23
2022-09-23T02:53:52.379Z,48.30
2022-09-23T02:56:30.454Z,49.00
2022-09-23T02:59:07.300Z,47.77
2022-09-23T03:01:50.740Z,49.77
2022-09-23T03:04:34.641Z,46.80
2022-09-23T03:07:20.807Z,45.77
2022-09-23T03:10:02.236Z,49.23
2022-09-23T03:12:44.776Z,50.17
2022-09-23T03:15:31.567Z,48.27
2022-09-23T03:18:13.312Z,53.67
2022-09-23T03:20:57.955Z,57.07
2022-09-23T03:23:42.473Z,51.10
2022-09-23T03:26:25.358Z,49.70
2022-09-23T03:29:00.284Z,51.13
2022-09-23T03:31:38.485Z,53.23
2022-09-23T03:34:22.574Z,52.67
2022-09-23T03:37:02.646Z,51.40
2022-09-23T03:39:48.584Z,48.10
2022-09-23T03:42:26.363Z,49.33
2022-09-23T03:45:04.845Z,51.13
2022-09-23T03:47:41.939Z,47.27
2022-09-23T03:50:23.796Z,43.43
2022-09-23T03:53:04.110Z,38.53
2022-09-23T03:55:42.012Z,39.67
2022-09-23T03:58:15.886Z,34.17
2022-09-23T04:00:54.746Z,32.30
2022-09-23T04:03:32.035Z,39.03
2022-09-23T04:06:16.828Z,31.20
2022-09-23T04:08:55.159Z,39.43
2022-09-23T04:11:31.853Z,34.97
2022-09-23T04:14:06.710Z,33.13
2022-09-23T04:16:45.279Z,30.90
2022-09-23T04:19:22.826Z,30.37
2022-09-23T04:22:08.931Z,36.43
2022-09-23T04:24:46.611Z,33.37
2022-09-23T04:27:31.272Z,37.30
2022-09-23T04:30:07.614Z,33.17
2022-09-23T04:32:43.332Z,36.17
2022-09-23T04:35:22.916Z,33.13
2022-09-23T04:38:03.365Z,34.70
2022-09-23T04:40:39.896Z,39.60
2022-09-23T04:43:19.827Z,37.43
2022-09-23T04:46:08.995Z,37.50
2022-09-23T04:48:44.892Z,38.63
2022-09-23T04:51:21.651Z,35.07
2022-09-23T04:54:01.172Z,49.67
2022-09-23T04:56:43.621Z,39.17
2022-09-23T04:59:29.714Z,43.83
2022-09-23T05:02:06.316Z,38.13
2022-09-23T05:04:52.569Z,32.60
2022-09-23T05:07:33.607Z,38.43
2022-09-23T05:10:08.540Z,35.93
2022-09-23T05:12:45.879Z,37.10
2022-09-23T05:15:25.152Z,28.73
2022-09-23T05:18:04.092Z,33.63
2022-09-23T05:20:40.727Z,38.03
2022-09-23T05:23:17.890Z,29.53
2022-09-23T05:25:53.233Z,31.17
2022-09-23T05:28:31.959Z,34.07
2022-09-23T05:31:18.678Z,26.23
2022-09-23T05:33:57.117Z,30.40
2022-09-23T05:36:37.894Z,28.57
2022-09-23T05:39:21.225Z,27.23
2022-09-23T05:41:56.964Z,24.90
2022-09-23T05:44:31.166Z,28.27
2022-09-23T05:47:08.031Z,28.47
2022-09-23T05:49:59.202Z,29.53
2022-09-23T05:52:45.953Z,26.73
2022-09-23T05:55:24.895Z,24.53
2022-09-23T05:58:01.124Z,27.73
2022-09-23T06:00:36.890Z,25.87
2022-09-23T06:03:18.819Z,26.50
2022-09-23T06:06:00.340Z,25.90
2022-09-23T06:08:36.209Z,28.77
2022-09-23T06:11:12.980Z,34.83
2022-09-23T06:13:47.561Z,26.23
2022-09-23T06:16:21.927Z,29.77
2022-09-23T06:19:10.271Z,30.43
2022-09-23T06:21:46.223Z,32.47
2022-09-23T06:24:28.623Z,34.77
2022-09-23T06:27:06.495Z,34.97
2022-09-23T06:29:43.515Z,32.50
2022-09-23T06:32:19.006Z,31.47
2022-09-23T06:34:55.799Z,30.90
2022-09-23T06:37:29.710Z,24.80
2022-09-23T06:40:08.902Z,27.37
2022-09-23T06:42:51.457Z,30.50
2022-09-23T06:45:29.886Z,29.80
2022-09-23T06:48:09.827Z,27.90
2022-09-23T06:50:49.753Z,36.37
2022-09-23T06:53:27.616Z,25.40
2022-09-23T06:56:07.412Z,29.70
2022-09-23T06:58:51.875Z,25.50
2022-09-23T07:01:29.628Z,27.80
2022-09-23T07:04:06.890Z,30.00
2022-09-23T07:06:48.505Z,28.13
2022-09-23T07:09:23.473Z,23.73
2022-09-23T07:12:11.140Z,25.93
2022-09-23T07:14:55.581Z,25.90
2022-09-23T07:17:31.023Z,24.33
2022-09-23T07:20:08.151Z,20.43
2022-09-23T07:22:56.385Z,26.77
2022-09-23T07:25:35.935Z,26.50
2022-09-23T07:28:11.087Z,24.73
2022-09-23T07:30:59.764Z,21.40
2022-09-23T07:33:35.842Z,19.67
2022-09-23T07:36:16.172Z,20.63
2022-09-23T07:38:55.353Z,28.40
2022-09-23T07:41:31.706Z,20.10
2022-09-23T07:44:12.378Z,24.60
2022-09-23T07:46:48.241Z,18.27
2022-09-23T07:49:24.060Z,24.60
2022-09-23T07:52:09.620Z,25.50
2022-09-23T07:54:52.915Z,26.77
2022-09-23T07:57:27.692Z,22.03
2022-09-23T08:00:01.994Z,25.17
2022-09-23T08:02:48.453Z,28.87
2022-09-23T08:05:28.405Z,24.57
2022-09-23T08:08:08.960Z,28.63
2022-09-23T08:10:47.850Z,23.60
2022-09-23T08:13:24.466Z,25.27
2022-09-23T08:15:58.806Z,24.40
2022-09-23T08:18:35.562Z,24.97
2022-09-23T08:21:12.556Z,22.80
2022-09-23T08:23:52.445Z,21.67
2022-09-23T08:26:29.617Z,26.20
2022-09-23T08:29:05.601Z,21.90
2022-09-23T08:31:40.336Z,23.77
2022-09-23T08:34:15.138Z,19.70
2022-09-23T08:36:55.703Z,22.10
2022-09-23T08:39:30.512Z,25.33
2022-09-23T08:42:31.166Z,22.17
2022-09-23T08:45:09.376Z,25.37
2022-09-23T08:47:50.827Z,22.23
2022-09-23T08:50:28.695Z,27.50
2022-09-23T08:53:08.719Z,23.90
2022-09-23T08:55:53.503Z,22.67
2022-09-23T08:58:45.884Z,28.50
2022-09-23T09:01:34.305Z,26.63
2022-09-23T09:04:34.026Z,22.70
2022-09-23T09:07:38.820Z,28.50
2022-09-23T09:10:23.718Z,25.20
2022-09-23T09:13:04.178Z,28.17
2022-09-23T09:15:55.213Z,28.83
2022-09-23T09:18:31.434Z,21.07
2022-09-23T09:21:15.356Z,28.50
2022-09-23T09:23:56.854Z,22.70
2022-09-23T09:26:33.895Z,25.20
2022-09-23T09:29:34.136Z,27.23
2022-09-23T09:32:24.221Z,32.73
2022-09-23T09:35:04.179Z,25.17
2022-09-23T09:37:44.125Z,27.53
2022-09-23T09:40:21.568Z,34.97
2022-09-23T09:42:56.312Z,29.00
2022-09-23T09:45:43.809Z,28.77
2022-09-23T09:48:28.265Z,24.57
2022-09-23T09:51:20.117Z,26.33
2022-09-23T09:53:58.016Z,21.80
2022-09-23T10:02:39.366Z,26.63
2022-09-23T10:05:32.477Z,26.20
2022-09-23T10:08:27.257Z,28.37
2022-09-23T10:11:09.540Z,25.23
2022-09-23T10:13:45.599Z,27.70
2022-09-23T10:16:23.007Z,26.23
2022-09-23T10:18:58.753Z,29.67
2022-09-23T10:21:47.270Z,27.27
2022-09-23T10:24:28.454Z,28.47
2022-09-23T10:27:09.348Z,31.23
2022-09-23T10:29:52.337Z,28.87
2022-09-23T10:32:31.320Z,31.53
2022-09-23T10:35:20.485Z,29.90
2022-09-23T10:38:04.346Z,32.63
2022-09-23T10:40:58.400Z,31.03
2022-09-23T10:43:53.819Z,27.80
2022-09-23T10:46:47.463Z,34.57
2022-09-23T10:49:53.602Z,24.97
2022-09-23T10:52:58.026Z,25.17
2022-09-23T10:55:45.925Z,27.20
2022-09-23T10:58:42.068Z,23.40
2022-09-23T11:01:32.954Z,20.23
2022-09-23T11:04:36.243Z,25.13
2022-09-23T11:07:22.707Z,23.00
2022-09-23T11:10:46.017Z,23.97
2022-09-23T11:13:43.821Z,20.13
2022-09-23T11:16:30.070Z,21.60
2022-09-23T11:19:45.532Z,23.03
2022-09-23T11:22:39.926Z,26.67
2022-09-23T11:25:42.160Z,21.57
2022-09-23T11:28:58.977Z,28.73
2022-09-23T11:31:56.151Z,24.10
2022-09-23T11:34:59.156Z,20.97
2022-09-23T11:37:43.857Z,21.17
2022-09-23T11:40:25.822Z,21.73
2022-09-23T11:43:04.296Z,23.40
2022-09-23T11:45:46.774Z,20.00
2022-09-23T11:48:29.000Z,20.20
2022-09-23T11:51:10.962Z,21.53
2022-09-23T11:53:50.654Z,23.40
2022-09-23T11:56:35.300Z,26.70
2022-09-23T11:59:26.223Z,18.53
2022-09-23T12:02:18.921Z,23.37
2022-09-23T12:05:08.282Z,23.20
2022-09-23T12:07:55.489Z,25.10
2022-09-23T12:10:50.228Z,28.27
2022-09-23T12:13:31.744Z,21.63
2022-09-23T12:16:47.018Z,25.53
2022-09-23T12:20:02.054Z,24.43
2022-09-23T12:22:57.135Z,20.10
2022-09-23T12:25:51.032Z,23.40
2022-09-23T12:28:40.834Z,27.10
2022-09-23T12:31:17.936Z,25.57
2022-09-23T12:33:55.722Z,28.80
2022-09-23T12:36:38.184Z,24.17
2022-09-23T12:39:33.970Z,26.57
2022-09-23T12:42:20.306Z,24.57
2022-09-23T12:44:58.209Z,28.67
2022-09-23T12:47:46.239Z,22.47
2022-09-23T12:50:55.913Z,24.77
2022-09-23T12:54:31.469Z,24.73
2022-09-23T12:57:16.107Z,28.37
2022-09-23T13:00:18.641Z,29.80
2022-09-23T13:03:24.568Z,21.07
2022-09-23T13:06:22.454Z,29.17
2022-09-23T13:08:58.909Z,30.23
2022-09-23T13:11:39.919Z,31.17
2022-09-23T13:14:29.167Z,31.23
2022-09-23T13:17:06.328Z,33.20
2022-09-23T13:19:52.880Z,31.30
2022-09-23T13:23:04.174Z,31.07
2022-09-23T13:25:47.479Z,29.73
2022-09-23T13:28:46.790Z,28.70
2022-09-23T13:31:34.067Z,37.77
2022-09-23T13:34:42.671Z,30.77
2022-09-23T13:37:27.832Z,33.33
2022-09-23T13:40:21.713Z,34.93
2022-09-23T13:43:00.509Z,31.93
2022-09-23T13:45:41.123Z,33.03
2022-09-23T13:48:31.980Z,32.73
2022-09-23T13:51:14.165Z,37.20
2022-09-23T13:53:54.941Z,32.00
2022-09-23T13:56:37.947Z,32.17
2022-09-23T13:59:33.735Z,30.33
2022-09-23T14:02:21.875Z,36.60
2022-09-23T14:05:17.361Z,36.53
2022-09-23T14:08:01.222Z,32.53
2022-09-23T14:10:41.588Z,36.27
2022-09-23T14:13:27.597Z,41.93
2022-09-23T14:16:09.504Z,38.07
2022-09-23T14:18:49.933Z,32.00
2022-09-23T14:21:47.589Z,32.40
2022-09-23T14:24:24.106Z,30.23
2022-09-23T14:27:08.908Z,30.47
2022-09-23T14:30:00.917Z,39.93
2022-09-23T14:32:48.719Z,28.20
2022-09-23T14:35:28.202Z,34.47
2022-09-23T14:38:21.154Z,33.93
2022-09-23T14:41:17.111Z,32.50
2022-09-23T14:44:01.804Z,33.30
2022-09-23T14:46:43.461Z,31.77
2022-09-23T14:49:23.005Z,28.97
2022-09-23T14:52:09.195Z,29.20
2022-09-23T14:54:51.906Z,31.83
2022-09-23T14:57:37.692Z,28.87
2022-09-23T15:00:27.043Z,32.70
2022-09-23T15:03:06.726Z,32.33
2022-09-23T15:06:03.059Z,33.90
2022-09-23T15:08:48.163Z,32.13
2022-09-23T15:11:26.671Z,35.07
2022-09-23T15:14:36.144Z,31.63
2022-09-23T15:17:01.713Z,30.97
2022-09-23T15:19:42.021Z,30.60
2022-09-23T15:22:19.953Z,31.37
2022-09-23T15:24:58.567Z,30.50
2022-09-23T15:27:42.148Z,30.83
2022-09-23T15:30:23.170Z,30.27
2022-09-23T15:33:04.050Z,30.57
2022-09-23T15:35:49.987Z,31.97
2022-09-23T15:38:31.094Z,30.93
2022-09-23T15:41:05.830Z,28.00
2022-09-23T15:43:49.921Z,33.50
2022-09-23T15:46:31.456Z,33.63
2022-09-23T15:49:32.031Z,29.87
2022-09-23T15:52:14.469Z,31.53
2022-09-23T15:54:49.757Z,34.87
2022-09-23T15:57:38.522Z,34.47
2022-09-23T16:00:17.849Z,34.97
2022-09-23T16:02:54.469Z,36.20
2022-09-23T16:05:35.280Z,35.03
2022-09-23T16:08:18.297Z,36.73
2022-09-23T16:11:00.073Z,33.07
2022-09-23T16:13:48.646Z,34.73
2022-09-23T16:16:32.598Z,32.57
2022-09-23T16:19:09.669Z,31.27
2022-09-23T16:21:53.472Z,30.97
2022-09-23T16:24:36.513Z,34.50
2022-09-23T16:27:24.202Z,34.37
2022-09-23T16:30:20.770Z,28.63
2022-09-23T16:33:06.315Z,32.23
2022-09-23T16:35:41.532Z,31.30
2022-09-23T16:38:16.010Z,31.80
2022-09-23T16:40:55.718Z,31.67
2022-09-23T16:43:41.167Z,27.03
2022-09-23T16:46:17.231Z,28.37
2022-09-23T16:48:53.765Z,33.80
2022-09-23T16:51:30.519Z,35.07
2022-09-23T16:54:07.680Z,27.30
2022-09-23T16:56:48.391Z,25.77
2022-09-23T16:59:22.583Z,28.30
2022-09-23T17:02:13.005Z,27.97
2022-09-23T17:04:59.127Z,25.43
2022-09-23T17:07:36.819Z,25.57
2022-09-23T17:10:13.474Z,27.80
2022-09-23T17:12:52.277Z,24.80
2022-09-23T17:15:33.094Z,27.20
2022-09-23T17:18:09.577Z,27.07
2022-09-23T17:21:00.671Z,22.00
2022-09-23T17:23:39.633Z,26.40
2022-09-23T17:26:17.973Z,26.37
2022-09-23T17:28:55.726Z,33.70
2022-09-23T17:31:30.714Z,28.70
2022-09-23T17:34:05.190Z,26.53
2022-09-23T17:36:42.701Z,27.60
2022-09-23T17:39:18.244Z,24.07
2022-09-23T17:41:57.426Z,30.80
2022-09-23T17:44:32.638Z,28.03
2022-09-23T17:47:08.118Z,30.53
2022-09-23T17:49:51.064Z,37.73
2022-09-23T17:52:28.156Z,31.30
2022-09-23T17:55:05.799Z,28.97
2022-09-23T17:57:39.654Z,26.17
2022-09-23T18:00:14.954Z,29.17
2022-09-23T18:02:58.406Z,29.20
2022-09-23T18:05:35.667Z,28.90
2022-09-23T18:08:12.916Z,41.73
2022-09-23T18:10:48.366Z,36.43
2022-09-23T18:13:28.868Z,35.50
2022-09-23T18:16:12.408Z,32.30
2022-09-23T18:18:50.008Z,31.33
2022-09-23T18:21:24.510Z,34.00
2022-09-23T18:24:21.687Z,39.67
2022-09-23T18:27:04.036Z,32.97
2022-09-23T18:29:44.011Z,41.67
2022-09-23T18:32:18.192Z,34.80
2022-09-23T18:34:53.069Z,36.33
2022-09-23T18:37:28.123Z,36.97
2022-09-23T18:40:07.104Z,37.87
2022-09-23T18:42:44.241Z,40.10
2022-09-23T18:45:19.998Z,46.83
2022-09-23T18:48:10.328Z,44.37
2022-09-23T18:50:50.280Z,46.43
2022-09-23T18:53:27.104Z,46.40
2022-09-23T18:56:04.619Z,43.23
2022-09-23T18:58:42.305Z,42.37
2022-09-23T19:01:20.956Z,40.67
2022-09-23T19:04:00.304Z,38.83
2022-09-23T19:06:39.200Z,41.80
2022-09-23T19:09:15.967Z,32.77
2022-09-23T19:11:56.771Z,29.50
2022-09-23T19:14:38.777Z,37.00
2022-09-23T19:17:16.462Z,38.37
2022-09-23T19:19:51.497Z,39.40
2022-09-23T19:22:26.916Z,38.03
2022-09-23T19:25:05.392Z,35.23
2022-09-23T19:27:44.914Z,31.60
2022-09-23T19:30:26.496Z,34.50
2022-09-23T19:33:01.126Z,32.60
2022-09-23T19:35:36.203Z,28.40
2022-09-23T19:38:13.882Z,28.43
2022-09-23T19:40:49.989Z,28.17
2022-09-23T19:43:30.144Z,32.20
2022-09-23T19:46:04.600Z,29.83
2022-09-23T19:48:39.151Z,34.33
2022-09-23T19:54:14.036Z,36.00
2022-09-23T19:56:51.075Z,28.23
2022-09-23T19:59:27.785Z,31.73
2022-09-23T20:02:02.577Z,36.63
2022-09-23T20:04:37.688Z,27.80
2022-09-23T20:07:17.107Z,34.73
2022-09-23T20:09:54.319Z,30.17
2022-09-23T20:12:30.676Z,33.60
2022-09-23T20:15:10.304Z,34.07
2022-09-23T20:17:47.423Z,36.40
2022-09-23T20:20:22.327Z,39.47
2022-09-23T20:22:56.537Z,33.27
2022-09-23T20:25:50.616Z,34.23
2022-09-23T20:28:23.965Z,36.90
2022-09-23T20:31:03.872Z,37.50
2022-09-23T20:33:38.618Z,34.67
2022-09-23T20:36:13.951Z,36.17
2022-09-23T20:38:48.715Z,30.73
2022-09-23T20:41:23.195Z,26.13
2022-09-23T20:44:00.836Z,32.80
2022-09-23T20:46:47.832Z,33.07
2022-09-23T20:49:24.035Z,26.17
2022-09-23T20:51:58.790Z,26.73
2022-09-23T20:54:33.822Z,28.47
2022-09-23T20:57:08.412Z,26.70
2022-09-23T20:59:42.948Z,24.13
2022-09-23T21:02:22.248Z,28.67
2022-09-23T21:04:57.472Z,25.60
2022-09-23T21:07:32.479Z,26.27
2022-09-23T21:10:08.573Z,22.60
2022-09-23T21:12:42.443Z,21.23
2022-09-23T21:15:16.766Z,25.83
2022-09-23T21:17:53.153Z,28.80
2022-09-23T21:20:28.137Z,29.37
2022-09-23T21:23:07.221Z,31.20
2022-09-23T21:25:41.783Z,25.13
2022-09-23T21:28:15.862Z,29.13
2022-09-23T21:30:53.501Z,34.57
2022-09-23T21:33:29.800Z,24.37
2022-09-23T21:36:05.929Z,31.00
2022-09-23T21:38:39.973Z,26.77
2022-09-23T21:41:15.523Z,29.97
2022-09-23T21:43:53.581Z,27.00
2022-09-23T21:46:31.828Z,28.90
2022-09-23T21:49:08.394Z,25.70
2022-09-23T21:51:43.757Z,30.57
2022-09-23T21:54:19.015Z,33.03
2022-09-23T21:56:56.013Z,35.40
2022-09-23T21:59:30.555Z,33.87
2022-09-23T22:02:05.239Z,32.60
2022-09-23T22:04:44.255Z,37.90
2022-09-23T22:07:18.401Z,44.40
2022-09-23T22:09:53.030Z,43.40
2022-09-23T22:12:28.147Z,46.73
2022-09-23T22:15:05.431Z,44.93
2022-09-23T22:17:43.232Z,42.50
2022-09-23T22:20:19.770Z,42.50
2022-09-23T22:22:54.907Z,40.57
2022-09-23T22:25:30.477Z,41.67
2022-09-23T22:28:20.716Z,40.37
2022-09-23T22:31:11.950Z,36.80
2022-09-23T22:33:52.319Z,38.53
2022-09-23T22:36:28.761Z,40.20
2022-09-23T22:39:04.630Z,38.03
2022-09-23T22:41:42.230Z,40.30
2022-09-23T22:44:16.988Z,37.83
2022-09-23T22:46:52.642Z,37.53
2022-09-23T22:49:28.010Z,38.67
2022-09-23T22:52:05.634Z,38.00
2022-09-23T22:54:39.544Z,31.60
2022-09-23T22:57:18.208Z,35.43
2022-09-23T22:59:55.275Z,31.63
2022-09-23T23:02:29.354Z,29.67
2022-09-23T23:05:05.777Z,34.97
2022-09-23T23:07:43.596Z,33.27
2022-09-23T23:10:18.584Z,38.23
2022-09-23T23:12:53.725Z,38.13
2022-09-23T23:15:30.015Z,40.60
2022-09-23T23:18:05.903Z,39.27
2022-09-23T23:20:40.933Z,45.20
2022-09-23T23:23:19.120Z,46.03
2022-09-23T23:25:54.556Z,42.77
2022-09-23T23:28:36.803Z,36.73
2022-09-23T23:31:12.574Z,36.33
2022-09-23T23:33:47.623Z,44.13
2022-09-23T23:36:25.154Z,38.33
2022-09-23T23:39:06.832Z,40.10
2022-09-23T23:41:42.954Z,36.83
2022-09-23T23:44:18.389Z,38.73
2022-09-23T23:46:53.714Z,36.30
2022-09-23T23:49:31.241Z,36.77
2022-09-23T23:52:07.385Z,39.10
2022-09-23T23:54:44.440Z,36.33
2022-09-23T23:57:21.656Z,33.10
